sensor_id;sensor_type;location;lat;lon;timestamp;P1;durP1;ratioP1;P2;durP2;ratioP2
5137;SDS011;53959;53.626;11.410;2023-03-14T00:02:07;1.80;;;1.70;;
5137;SDS011;53959;53.626;11.410;2023-03-14T00:04:33;5.07;;;1.53;;
5137;SDS011;53959;53.626;11.410;2023-03-14T00:06:58;2.30;;;1.60;;
5137;SDS011;53959;53.626;11.410;2023-03-14T00:09:24;3.80;;;1.93;;
5137;SDS011;53959;53.626;11.410;2023-03-14T00:11:52;4.33;;;1.80;;
5137;SDS011;53959;53.626;11.410;2023-03-14T00:14:17;3.20;;;1.70;;
5137;SDS011;53959;53.626;11.410;2023-03-14T00:16:45;4.07;;;1.60;;
5137;SDS011;53959;53.626;11.410;2023-03-14T00:19:11;2.83;;;1.60;;
5137;SDS011;53959;53.626;11.410;2023-03-14T00:21:36;12.10;;;1.97;;
5137;SDS011;53959;53.626;11.410;2023-03-14T00:24:01;2.23;;;2.00;;
5137;SDS011;53959;53.626;11.410;2023-03-14T00:26:27;4.73;;;2.37;;
5137;SDS011;53959;53.626;11.410;2023-03-14T00:28:52;4.50;;;1.90;;
5137;SDS011;53959;53.626;11.410;2023-03-14T00:31:18;1.90;;;1.70;;
5137;SDS011;53959;53.626;11.410;2023-03-14T00:33:44;2.90;;;1.70;;
5137;SDS011;53959;53.626;11.410;2023-03-14T00:36:10;3.73;;;1.60;;
5137;SDS011;53959;53.626;11.410;2023-03-14T00:38:38;6.20;;;2.50;;
5137;SDS011;53959;53.626;11.410;2023-03-14T00:41:06;8.13;;;2.00;;
5137;SDS011;53959;53.626;11.410;2023-03-14T00:43:32;2.13;;;2.03;;
5137;SDS011;53959;53.626;11.410;2023-03-14T00:45:58;4.37;;;2.07;;
5137;SDS011;53959;53.626;11.410;2023-03-14T00:48:25;1.53;;;1.23;;
5137;SDS011;53959;53.626;11.410;2023-03-14T00:50:51;6.20;;;2.40;;
5137;SDS011;53959;53.626;11.410;2023-03-14T00:53:17;4.50;;;2.10;;
5137;SDS011;53959;53.626;11.410;2023-03-14T00:55:44;7.10;;;1.90;;
5137;SDS011;53959;53.626;11.410;2023-03-14T00:58:10;2.90;;;1.93;;
5137;SDS011;53959;53.626;11.410;2023-03-14T01:00:37;5.13;;;1.50;;
5137;SDS011;53959;53.626;11.410;2023-03-14T01:03:04;2.40;;;1.67;;
5137;SDS011;53959;53.626;11.410;2023-03-14T01:05:30;2.70;;;2.03;;
5137;SDS011;53959;53.626;11.410;2023-03-14T01:07:55;1.30;;;1.30;;
5137;SDS011;53959;53.626;11.410;2023-03-14T01:10:21;2.90;;;1.80;;
5137;SDS011;53959;53.626;11.410;2023-03-14T01:12:46;3.40;;;1.90;;
5137;SDS011;53959;53.626;11.410;2023-03-14T01:15:12;2.07;;;1.87;;
5137;SDS011;53959;53.626;11.410;2023-03-14T01:17:37;3.80;;;2.23;;
5137;SDS011;53959;53.626;11.410;2023-03-14T01:20:04;8.60;;;1.97;;
5137;SDS011;53959;53.626;11.410;2023-03-14T01:22:31;2.33;;;1.93;;
5137;SDS011;53959;53.626;11.410;2023-03-14T01:24:56;2.20;;;2.00;;
5137;SDS011;53959;53.626;11.410;2023-03-14T01:27:21;2.40;;;1.73;;
5137;SDS011;53959;53.626;11.410;2023-03-14T01:29:47;3.23;;;2.10;;
5137;SDS011;53959;53.626;11.410;2023-03-14T01:32:13;8.10;;;2.30;;
5137;SDS011;53959;53.626;11.410;2023-03-14T01:34:38;3.03;;;2.70;;
5137;SDS011;53959;53.626;11.410;2023-03-14T01:37:04;19.07;;;3.00;;
5137;SDS011;53959;53.626;11.410;2023-03-14T01:39:30;6.93;;;1.93;;
5137;SDS011;53959;53.626;11.410;2023-03-14T01:41:56;11.37;;;1.90;;
5137;SDS011;53959;53.626;11.410;2023-03-14T01:44:21;5.40;;;2.20;;
5137;SDS011;53959;53.626;11.410;2023-03-14T01:46:46;3.80;;;2.63;;
5137;SDS011;53959;53.626;11.410;2023-03-14T01:52:03;5.07;;;2.50;;
5137;SDS011;53959;53.626;11.410;2023-03-14T01:57:28;9.00;;;2.50;;
5137;SDS011;53959;53.626;11.410;2023-03-14T01:59:58;5.80;;;2.57;;
5137;SDS011;53959;53.626;11.410;2023-03-14T02:02:39;2.30;;;2.20;;
5137;SDS011;53959;53.626;11.410;2023-03-14T02:05:08;12.50;;;2.30;;
5137;SDS011;53959;53.626;11.410;2023-03-14T02:07:41;3.77;;;2.33;;
5137;SDS011;53959;53.626;11.410;2023-03-14T02:10:19;3.90;;;3.03;;
5137;SDS011;53959;53.626;11.410;2023-03-14T02:12:49;4.83;;;2.50;;
5137;SDS011;53959;53.626;11.410;2023-03-14T02:15:36;5.93;;;2.33;;
5137;SDS011;53959;53.626;11.410;2023-03-14T02:18:09;5.83;;;2.50;;
5137;SDS011;53959;53.626;11.410;2023-03-14T02:21:11;6.33;;;2.90;;
5137;SDS011;53959;53.626;11.410;2023-03-14T02:23:55;5.63;;;2.17;;
5137;SDS011;53959;53.626;11.410;2023-03-14T02:26:28;3.70;;;2.27;;
5137;SDS011;53959;53.626;11.410;2023-03-14T02:29:01;5.30;;;1.83;;
5137;SDS011;53959;53.626;11.410;2023-03-14T02:31:26;2.47;;;1.50;;
5137;SDS011;53959;53.626;11.410;2023-03-14T02:33:52;7.23;;;2.13;;
5137;SDS011;53959;53.626;11.410;2023-03-14T02:36:18;2.60;;;1.80;;
5137;SDS011;53959;53.626;11.410;2023-03-14T02:38:47;9.93;;;2.40;;
5137;SDS011;53959;53.626;11.410;2023-03-14T02:41:14;5.07;;;2.30;;
5137;SDS011;53959;53.626;11.410;2023-03-14T02:43:45;8.43;;;2.57;;
5137;SDS011;53959;53.626;11.410;2023-03-14T02:46:13;7.97;;;2.60;;
5137;SDS011;53959;53.626;11.410;2023-03-14T02:48:42;5.00;;;2.50;;
5137;SDS011;53959;53.626;11.410;2023-03-14T02:51:12;3.13;;;2.20;;
5137;SDS011;53959;53.626;11.410;2023-03-14T02:53:39;8.60;;;2.00;;
5137;SDS011;53959;53.626;11.410;2023-03-14T02:56:09;2.00;;;1.80;;
5137;SDS011;53959;53.626;11.410;2023-03-14T02:58:35;2.13;;;1.97;;
5137;SDS011;53959;53.626;11.410;2023-03-14T03:01:15;4.27;;;2.10;;
5137;SDS011;53959;53.626;11.410;2023-03-14T03:03:40;4.90;;;2.20;;
5137;SDS011;53959;53.626;11.410;2023-03-14T03:06:06;4.53;;;2.30;;
5137;SDS011;53959;53.626;11.410;2023-03-14T03:08:32;5.63;;;2.07;;
5137;SDS011;53959;53.626;11.410;2023-03-14T03:10:58;3.13;;;1.80;;
5137;SDS011;53959;53.626;11.410;2023-03-14T03:13:26;3.03;;;2.03;;
5137;SDS011;53959;53.626;11.410;2023-03-14T03:15:53;6.73;;;2.17;;
5137;SDS011;53959;53.626;11.410;2023-03-14T03:18:19;3.90;;;2.10;;
5137;SDS011;53959;53.626;11.410;2023-03-14T03:20:44;5.00;;;2.00;;
5137;SDS011;53959;53.626;11.410;2023-03-14T03:23:10;2.83;;;1.90;;
5137;SDS011;53959;53.626;11.410;2023-03-14T03:25:37;7.70;;;2.13;;
5137;SDS011;53959;53.626;11.410;2023-03-14T03:28:03;5.37;;;1.70;;
5137;SDS011;53959;53.626;11.410;2023-03-14T03:30:42;5.40;;;2.20;;
5137;SDS011;53959;53.626;11.410;2023-03-14T03:33:09;6.47;;;2.07;;
5137;SDS011;53959;53.626;11.410;2023-03-14T03:35:35;2.10;;;2.00;;
5137;SDS011;53959;53.626;11.410;2023-03-14T03:38:06;2.37;;;2.27;;
5137;SDS011;53959;53.626;11.410;2023-03-14T03:40:31;4.87;;;2.53;;
5137;SDS011;53959;53.626;11.410;2023-03-14T03:42:57;2.23;;;2.10;;
5137;SDS011;53959;53.626;11.410;2023-03-14T03:45:22;5.73;;;1.70;;
5137;SDS011;53959;53.626;11.410;2023-03-14T03:47:53;4.30;;;2.30;;
5137;SDS011;53959;53.626;11.410;2023-03-14T03:50:18;11.63;;;2.07;;
5137;SDS011;53959;53.626;11.410;2023-03-14T03:52:43;4.10;;;2.00;;
5137;SDS011;53959;53.626;11.410;2023-03-14T03:55:09;12.10;;;3.00;;
5137;SDS011;53959;53.626;11.410;2023-03-14T03:57:34;3.47;;;2.20;;
5137;SDS011;53959;53.626;11.410;2023-03-14T03:59:59;7.70;;;2.30;;
5137;SDS011;53959;53.626;11.410;2023-03-14T04:02:26;10.20;;;2.37;;
5137;SDS011;53959;53.626;11.410;2023-03-14T04:04:52;7.80;;;2.90;;
5137;SDS011;53959;53.626;11.410;2023-03-14T04:07:17;6.83;;;2.03;;
5137;SDS011;53959;53.626;11.410;2023-03-14T04:09:43;4.67;;;2.17;;
5137;SDS011;53959;53.626;11.410;2023-03-14T04:12:23;8.23;;;1.93;;
5137;SDS011;53959;53.626;11.410;2023-03-14T04:15:11;5.20;;;1.97;;
5137;SDS011;53959;53.626;11.410;2023-03-14T04:17:40;4.07;;;2.27;;
5137;SDS011;53959;53.626;11.410;2023-03-14T04:20:06;2.23;;;2.03;;
5137;SDS011;53959;53.626;11.410;2023-03-14T04:22:35;3.10;;;1.60;;
5137;SDS011;53959;53.626;11.410;2023-03-14T04:25:02;2.13;;;1.93;;
5137;SDS011;53959;53.626;11.410;2023-03-14T04:27:30;2.63;;;1.80;;
5137;SDS011;53959;53.626;11.410;2023-03-14T04:29:57;6.00;;;2.10;;
5137;SDS011;53959;53.626;11.410;2023-03-14T04:32:41;3.17;;;2.50;;
5137;SDS011;53959;53.626;11.410;2023-03-14T04:35:06;1.80;;;1.70;;
5137;SDS011;53959;53.626;11.410;2023-03-14T04:37:32;2.37;;;1.83;;
5137;SDS011;53959;53.626;11.410;2023-03-14T04:39:57;2.53;;;1.70;;
5137;SDS011;53959;53.626;11.410;2023-03-14T04:42:25;4.27;;;2.30;;
5137;SDS011;53959;53.626;11.410;2023-03-14T04:44:51;3.60;;;1.70;;
5137;SDS011;53959;53.626;11.410;2023-03-14T04:47:19;5.63;;;2.43;;
5137;SDS011;53959;53.626;11.410;2023-03-14T04:49:46;2.27;;;1.70;;
5137;SDS011;53959;53.626;11.410;2023-03-14T04:52:13;5.07;;;2.20;;
5137;SDS011;53959;53.626;11.410;2023-03-14T04:54:40;5.50;;;1.63;;
5137;SDS011;53959;53.626;11.410;2023-03-14T04:57:05;5.40;;;1.80;;
5137;SDS011;53959;53.626;11.410;2023-03-14T04:59:33;2.90;;;2.10;;
5137;SDS011;53959;53.626;11.410;2023-03-14T05:02:08;1.63;;;1.53;;
5137;SDS011;53959;53.626;11.410;2023-03-14T05:04:52;5.50;;;2.20;;
5137;SDS011;53959;53.626;11.410;2023-03-14T05:07:34;5.70;;;1.73;;
5137;SDS011;53959;53.626;11.410;2023-03-14T05:10:22;2.50;;;1.63;;
5137;SDS011;53959;53.626;11.410;2023-03-14T05:13:09;3.40;;;2.10;;
5137;SDS011;53959;53.626;11.410;2023-03-14T05:15:53;6.83;;;2.17;;
5137;SDS011;53959;53.626;11.410;2023-03-14T05:18:46;9.43;;;2.33;;
5137;SDS011;53959;53.626;11.410;2023-03-14T05:21:30;3.07;;;1.50;;
5137;SDS011;53959;53.626;11.410;2023-03-14T05:24:22;5.73;;;1.90;;
5137;SDS011;53959;53.626;11.410;2023-03-14T05:27:08;5.77;;;2.00;;
5137;SDS011;53959;53.626;11.410;2023-03-14T05:29:33;5.03;;;1.60;;
5137;SDS011;53959;53.626;11.410;2023-03-14T05:32:22;9.10;;;1.90;;
5137;SDS011;53959;53.626;11.410;2023-03-14T05:35:13;11.80;;;2.37;;
5137;SDS011;53959;53.626;11.410;2023-03-14T05:37:51;11.63;;;2.30;;
5137;SDS011;53959;53.626;11.410;2023-03-14T05:40:44;3.73;;;1.77;;
5137;SDS011;53959;53.626;11.410;2023-03-14T05:43:28;12.57;;;2.33;;
5137;SDS011;53959;53.626;11.410;2023-03-14T05:46:16;2.67;;;2.00;;
5137;SDS011;53959;53.626;11.410;2023-03-14T05:49:10;3.77;;;1.60;;
5137;SDS011;53959;53.626;11.410;2023-03-14T05:52:05;11.27;;;2.20;;
5137;SDS011;53959;53.626;11.410;2023-03-14T05:54:47;2.67;;;2.17;;
5137;SDS011;53959;53.626;11.410;2023-03-14T05:57:33;3.47;;;1.40;;
5137;SDS011;53959;53.626;11.410;2023-03-14T06:00:17;10.20;;;2.10;;
5137;SDS011;53959;53.626;11.410;2023-03-14T06:02:52;3.87;;;1.70;;
5137;SDS011;53959;53.626;11.410;2023-03-14T06:05:23;6.47;;;1.90;;
5137;SDS011;53959;53.626;11.410;2023-03-14T06:07:52;11.57;;;1.97;;
5137;SDS011;53959;53.626;11.410;2023-03-14T06:10:19;4.73;;;2.00;;
5137;SDS011;53959;53.626;11.410;2023-03-14T06:12:45;8.47;;;2.10;;
5137;SDS011;53959;53.626;11.410;2023-03-14T06:15:10;3.53;;;1.43;;
5137;SDS011;53959;53.626;11.410;2023-03-14T06:17:36;7.50;;;2.00;;
5137;SDS011;53959;53.626;11.410;2023-03-14T06:20:07;7.97;;;1.80;;
5137;SDS011;53959;53.626;11.410;2023-03-14T06:22:33;8.13;;;2.10;;
5137;SDS011;53959;53.626;11.410;2023-03-14T06:24:59;10.10;;;2.23;;
5137;SDS011;53959;53.626;11.410;2023-03-14T06:27:25;2.87;;;1.73;;
5137;SDS011;53959;53.626;11.410;2023-03-14T06:29:53;4.40;;;1.77;;
5137;SDS011;53959;53.626;11.410;2023-03-14T06:32:19;2.30;;;1.80;;
5137;SDS011;53959;53.626;11.410;2023-03-14T06:34:47;4.53;;;1.50;;
5137;SDS011;53959;53.626;11.410;2023-03-14T06:37:12;4.43;;;1.93;;
5137;SDS011;53959;53.626;11.410;2023-03-14T06:39:38;5.37;;;1.60;;
5137;SDS011;53959;53.626;11.410;2023-03-14T06:42:10;5.27;;;2.23;;
5137;SDS011;53959;53.626;11.410;2023-03-14T06:44:37;4.67;;;1.47;;
5137;SDS011;53959;53.626;11.410;2023-03-14T06:47:03;9.20;;;2.40;;
5137;SDS011;53959;53.626;11.410;2023-03-14T06:49:28;7.00;;;1.97;;
5137;SDS011;53959;53.626;11.410;2023-03-14T06:51:56;5.40;;;1.80;;
5137;SDS011;53959;53.626;11.410;2023-03-14T06:54:22;19.10;;;1.87;;
5137;SDS011;53959;53.626;11.410;2023-03-14T06:56:47;4.20;;;1.70;;
5137;SDS011;53959;53.626;11.410;2023-03-14T06:59:13;6.10;;;1.90;;
5137;SDS011;53959;53.626;11.410;2023-03-14T07:01:39;5.33;;;1.90;;
5137;SDS011;53959;53.626;11.410;2023-03-14T07:04:09;9.87;;;2.13;;
5137;SDS011;53959;53.626;11.410;2023-03-14T07:06:36;3.83;;;1.53;;
5137;SDS011;53959;53.626;11.410;2023-03-14T07:09:03;3.97;;;1.60;;
5137;SDS011;53959;53.626;11.410;2023-03-14T07:11:29;7.07;;;2.60;;
5137;SDS011;53959;53.626;11.410;2023-03-14T07:13:54;5.00;;;1.90;;
5137;SDS011;53959;53.626;11.410;2023-03-14T07:16:20;2.63;;;2.00;;
5137;SDS011;53959;53.626;11.410;2023-03-14T07:18:45;11.60;;;1.70;;
5137;SDS011;53959;53.626;11.410;2023-03-14T07:21:11;10.50;;;2.20;;
5137;SDS011;53959;53.626;11.410;2023-03-14T07:23:37;10.30;;;2.20;;
5137;SDS011;53959;53.626;11.410;2023-03-14T07:26:03;16.83;;;2.20;;
5137;SDS011;53959;53.626;11.410;2023-03-14T07:28:31;8.00;;;2.70;;
5137;SDS011;53959;53.626;11.410;2023-03-14T07:31:02;6.83;;;1.97;;
5137;SDS011;53959;53.626;11.410;2023-03-14T07:33:30;10.53;;;2.50;;
5137;SDS011;53959;53.626;11.410;2023-03-14T07:35:56;6.20;;;2.20;;
5137;SDS011;53959;53.626;11.410;2023-03-14T07:38:22;9.67;;;2.20;;
5137;SDS011;53959;53.626;11.410;2023-03-14T07:41:06;3.60;;;1.70;;
5137;SDS011;53959;53.626;11.410;2023-03-14T07:43:34;1.70;;;1.30;;
5137;SDS011;53959;53.626;11.410;2023-03-14T07:46:00;3.73;;;1.57;;
5137;SDS011;53959;53.626;11.410;2023-03-14T07:48:25;5.83;;;1.90;;
5137;SDS011;53959;53.626;11.410;2023-03-14T07:50:52;5.90;;;1.90;;
5137;SDS011;53959;53.626;11.410;2023-03-14T07:53:18;9.20;;;1.97;;
5137;SDS011;53959;53.626;11.410;2023-03-14T07:55:44;6.53;;;1.70;;
5137;SDS011;53959;53.626;11.410;2023-03-14T07:58:10;2.10;;;1.40;;
5137;SDS011;53959;53.626;11.410;2023-03-14T08:00:36;3.80;;;1.30;;
5137;SDS011;53959;53.626;11.410;2023-03-14T08:03:01;2.30;;;1.57;;
5137;SDS011;53959;53.626;11.410;2023-03-14T08:05:26;4.97;;;1.70;;
5137;SDS011;53959;53.626;11.410;2023-03-14T08:07:52;7.40;;;2.20;;
5137;SDS011;53959;53.626;11.410;2023-03-14T08:10:17;2.77;;;1.63;;
5137;SDS011;53959;53.626;11.410;2023-03-14T08:12:49;16.00;;;1.80;;
5137;SDS011;53959;53.626;11.410;2023-03-14T08:15:15;7.20;;;1.97;;
5137;SDS011;53959;53.626;11.410;2023-03-14T08:17:40;3.77;;;1.50;;
5137;SDS011;53959;53.626;11.410;2023-03-14T08:20:06;6.80;;;1.90;;
5137;SDS011;53959;53.626;11.410;2023-03-14T08:22:35;4.80;;;1.40;;
5137;SDS011;53959;53.626;11.410;2023-03-14T08:25:01;11.17;;;1.87;;
5137;SDS011;53959;53.626;11.410;2023-03-14T08:27:26;5.40;;;1.03;;
5137;SDS011;53959;53.626;11.410;2023-03-14T08:29:51;2.93;;;1.37;;
5137;SDS011;53959;53.626;11.410;2023-03-14T08:32:17;1.80;;;1.30;;
5137;SDS011;53959;53.626;11.410;2023-03-14T08:34:42;5.70;;;2.17;;
5137;SDS011;53959;53.626;11.410;2023-03-14T08:37:08;2.87;;;1.07;;
5137;SDS011;53959;53.626;11.410;2023-03-14T08:39:33;2.93;;;1.37;;
5137;SDS011;53959;53.626;11.410;2023-03-14T08:41:58;4.73;;;1.87;;
5137;SDS011;53959;53.626;11.410;2023-03-14T08:44:24;4.10;;;2.07;;
5137;SDS011;53959;53.626;11.410;2023-03-14T08:46:49;3.17;;;1.90;;
5137;SDS011;53959;53.626;11.410;2023-03-14T08:49:14;5.50;;;2.07;;
5137;SDS011;53959;53.626;11.410;2023-03-14T08:51:40;3.37;;;1.90;;
5137;SDS011;53959;53.626;11.410;2023-03-14T08:54:05;12.87;;;2.47;;
5137;SDS011;53959;53.626;11.410;2023-03-14T08:56:30;8.07;;;2.43;;
5137;SDS011;53959;53.626;11.410;2023-03-14T08:58:56;5.00;;;2.20;;
5137;SDS011;53959;53.626;11.410;2023-03-14T09:01:21;7.27;;;2.87;;
5137;SDS011;53959;53.626;11.410;2023-03-14T09:03:49;3.33;;;2.23;;
5137;SDS011;53959;53.626;11.410;2023-03-14T09:06:14;8.00;;;3.40;;
5137;SDS011;53959;53.626;11.410;2023-03-14T09:08:43;7.27;;;3.10;;
5137;SDS011;53959;53.626;11.410;2023-03-14T09:11:08;5.27;;;2.80;;
5137;SDS011;53959;53.626;11.410;2023-03-14T09:13:34;4.93;;;2.70;;
5137;SDS011;53959;53.626;11.410;2023-03-14T09:15:59;6.40;;;2.60;;
5137;SDS011;53959;53.626;11.410;2023-03-14T09:18:24;9.73;;;3.40;;
5137;SDS011;53959;53.626;11.410;2023-03-14T09:20:50;9.47;;;2.40;;
5137;SDS011;53959;53.626;11.410;2023-03-14T09:23:15;7.93;;;3.50;;
5137;SDS011;53959;53.626;11.410;2023-03-14T09:25:41;9.07;;;3.40;;
5137;SDS011;53959;53.626;11.410;2023-03-14T09:28:06;9.03;;;3.10;;
5137;SDS011;53959;53.626;11.410;2023-03-14T09:30:32;17.83;;;4.00;;
5137;SDS011;53959;53.626;11.410;2023-03-14T09:32:57;7.77;;;3.23;;
5137;SDS011;53959;53.626;11.410;2023-03-14T09:35:24;5.43;;;2.80;;
5137;SDS011;53959;53.626;11.410;2023-03-14T09:37:50;3.63;;;2.80;;
5137;SDS011;53959;53.626;11.410;2023-03-14T09:40:16;32.83;;;4.07;;
5137;SDS011;53959;53.626;11.410;2023-03-14T09:42:43;8.50;;;2.80;;
5137;SDS011;53959;53.626;11.410;2023-03-14T09:45:13;5.07;;;2.93;;
5137;SDS011;53959;53.626;11.410;2023-03-14T09:47:50;4.70;;;2.83;;
5137;SDS011;53959;53.626;11.410;2023-03-14T09:50:16;11.73;;;4.07;;
5137;SDS011;53959;53.626;11.410;2023-03-14T09:52:42;6.30;;;3.00;;
5137;SDS011;53959;53.626;11.410;2023-03-14T09:55:19;10.43;;;2.77;;
5137;SDS011;53959;53.626;11.410;2023-03-14T09:57:46;6.17;;;2.73;;
5137;SDS011;53959;53.626;11.410;2023-03-14T10:00:19;6.17;;;2.73;;
5137;SDS011;53959;53.626;11.410;2023-03-14T10:03:12;8.33;;;2.53;;
5137;SDS011;53959;53.626;11.410;2023-03-14T10:05:51;6.83;;;2.20;;
5137;SDS011;53959;53.626;11.410;2023-03-14T10:08:18;3.40;;;1.40;;
5137;SDS011;53959;53.626;11.410;2023-03-14T10:10:44;4.27;;;2.13;;
5137;SDS011;53959;53.626;11.410;2023-03-14T10:15:35;6.93;;;2.13;;
5137;SDS011;53959;53.626;11.410;2023-03-14T10:18:02;7.90;;;2.37;;
5137;SDS011;53959;53.626;11.410;2023-03-14T10:20:39;11.20;;;2.53;;
5137;SDS011;53959;53.626;11.410;2023-03-14T10:25:58;9.07;;;2.23;;
5137;SDS011;53959;53.626;11.410;2023-03-14T10:28:30;10.30;;;2.77;;
5137;SDS011;53959;53.626;11.410;2023-03-14T10:30:58;6.73;;;2.30;;
5137;SDS011;53959;53.626;11.410;2023-03-14T10:33:26;3.43;;;1.43;;
5137;SDS011;53959;53.626;11.410;2023-03-14T10:35:57;7.60;;;2.30;;
5137;SDS011;53959;53.626;11.410;2023-03-14T10:38:26;5.57;;;1.97;;
5137;SDS011;53959;53.626;11.410;2023-03-14T10:40:53;7.60;;;2.10;;
5137;SDS011;53959;53.626;11.410;2023-03-14T10:43:23;4.00;;;1.97;;
5137;SDS011;53959;53.626;11.410;2023-03-14T10:45:57;5.60;;;2.23;;
5137;SDS011;53959;53.626;11.410;2023-03-14T10:48:31;4.00;;;1.40;;
5137;SDS011;53959;53.626;11.410;2023-03-14T10:53:24;2.57;;;1.70;;
5137;SDS011;53959;53.626;11.410;2023-03-14T10:55:50;4.13;;;1.40;;
5137;SDS011;53959;53.626;11.410;2023-03-14T10:58:28;3.93;;;1.77;;
5137;SDS011;53959;53.626;11.410;2023-03-14T11:03:59;2.53;;;1.30;;
5137;SDS011;53959;53.626;11.410;2023-03-14T11:09:50;4.60;;;1.50;;
5137;SDS011;53959;53.626;11.410;2023-03-14T11:12:14;2.23;;;1.33;;
5137;SDS011;53959;53.626;11.410;2023-03-14T11:14:43;8.93;;;2.30;;
5137;SDS011;53959;53.626;11.410;2023-03-14T11:17:20;4.50;;;1.40;;
5137;SDS011;53959;53.626;11.410;2023-03-14T11:25:32;4.23;;;1.23;;
5137;SDS011;53959;53.626;11.410;2023-03-14T11:31:04;3.60;;;1.00;;
5137;SDS011;53959;53.626;11.410;2023-03-14T11:33:35;5.20;;;1.53;;
5137;SDS011;53959;53.626;11.410;2023-03-14T11:38:37;0.87;;;0.87;;
5137;SDS011;53959;53.626;11.410;2023-03-14T11:41:14;1.33;;;0.70;;
5137;SDS011;53959;53.626;11.410;2023-03-14T11:43:47;0.83;;;0.50;;
5137;SDS011;53959;53.626;11.410;2023-03-14T11:46:18;1.37;;;0.80;;
5137;SDS011;53959;53.626;11.410;2023-03-14T11:49:06;1.33;;;0.70;;
5137;SDS011;53959;53.626;11.410;2023-03-14T11:51:41;1.60;;;0.63;;
5137;SDS011;53959;53.626;11.410;2023-03-14T11:57:03;1.07;;;0.90;;
5137;SDS011;53959;53.626;11.410;2023-03-14T11:59:32;1.33;;;0.60;;
5137;SDS011;53959;53.626;11.410;2023-03-14T12:02:27;0.50;;;0.50;;
5137;SDS011;53959;53.626;11.410;2023-03-14T12:13:11;1.60;;;0.80;;
5137;SDS011;53959;53.626;11.410;2023-03-14T12:15:40;0.50;;;0.40;;
5137;SDS011;53959;53.626;11.410;2023-03-14T12:20:54;1.50;;;0.70;;
5137;SDS011;53959;53.626;11.410;2023-03-14T12:23:22;2.63;;;1.13;;
5137;SDS011;53959;53.626;11.410;2023-03-14T12:26:05;7.60;;;1.03;;
5137;SDS011;53959;53.626;11.410;2023-03-14T12:28:33;7.63;;;1.67;;
5137;SDS011;53959;53.626;11.410;2023-03-14T12:31:26;5.10;;;1.60;;
5137;SDS011;53959;53.626;11.410;2023-03-14T12:36:51;9.00;;;1.40;;
5137;SDS011;53959;53.626;11.410;2023-03-14T12:45:14;10.53;;;1.60;;
5137;SDS011;53959;53.626;11.410;2023-03-14T12:55:48;10.33;;;1.70;;
5137;SDS011;53959;53.626;11.410;2023-03-14T12:58:27;12.40;;;1.30;;
5137;SDS011;53959;53.626;11.410;2023-03-14T13:01:04;9.67;;;1.90;;
5137;SDS011;53959;53.626;11.410;2023-03-14T13:11:53;5.20;;;1.83;;
5137;SDS011;53959;53.626;11.410;2023-03-14T13:14:19;11.97;;;2.03;;
5137;SDS011;53959;53.626;11.410;2023-03-14T13:16:46;12.07;;;2.10;;
5137;SDS011;53959;53.626;11.410;2023-03-14T13:19:22;9.70;;;2.03;;
5137;SDS011;53959;53.626;11.410;2023-03-14T13:21:50;13.80;;;1.80;;
5137;SDS011;53959;53.626;11.410;2023-03-14T13:24:26;8.03;;;1.40;;
5137;SDS011;53959;53.626;11.410;2023-03-14T13:26:54;16.00;;;1.93;;
5137;SDS011;53959;53.626;11.410;2023-03-14T13:29:20;9.70;;;2.37;;
5137;SDS011;53959;53.626;11.410;2023-03-14T13:31:52;10.07;;;1.90;;
5137;SDS011;53959;53.626;11.410;2023-03-14T13:34:19;14.83;;;2.00;;
5137;SDS011;53959;53.626;11.410;2023-03-14T13:36:45;11.73;;;1.60;;
5137;SDS011;53959;53.626;11.410;2023-03-14T13:39:18;6.63;;;1.20;;
5137;SDS011;53959;53.626;11.410;2023-03-14T13:41:47;20.70;;;2.47;;
5137;SDS011;53959;53.626;11.410;2023-03-14T13:44:14;19.13;;;2.47;;
5137;SDS011;53959;53.626;11.410;2023-03-14T13:46:42;4.43;;;1.30;;
5137;SDS011;53959;53.626;11.410;2023-03-14T13:49:12;17.63;;;3.10;;
5137;SDS011;53959;53.626;11.410;2023-03-14T13:51:44;4.77;;;1.50;;
5137;SDS011;53959;53.626;11.410;2023-03-14T13:54:16;8.60;;;1.30;;
5137;SDS011;53959;53.626;11.410;2023-03-14T13:56:43;14.17;;;1.57;;
5137;SDS011;53959;53.626;11.410;2023-03-14T13:59:20;6.70;;;1.53;;
5137;SDS011;53959;53.626;11.410;2023-03-14T14:01:56;7.23;;;1.80;;
5137;SDS011;53959;53.626;11.410;2023-03-14T14:04:25;16.97;;;2.30;;
5137;SDS011;53959;53.626;11.410;2023-03-14T14:07:01;15.57;;;2.87;;
5137;SDS011;53959;53.626;11.410;2023-03-14T14:09:37;16.50;;;2.60;;
5137;SDS011;53959;53.626;11.410;2023-03-14T14:14:37;5.77;;;2.00;;
5137;SDS011;53959;53.626;11.410;2023-03-14T14:17:08;19.90;;;3.47;;
5137;SDS011;53959;53.626;11.410;2023-03-14T14:19:36;10.60;;;3.70;;
5137;SDS011;53959;53.626;11.410;2023-03-14T14:22:03;7.60;;;2.50;;
5137;SDS011;53959;53.626;11.410;2023-03-14T14:24:30;11.13;;;2.70;;
5137;SDS011;53959;53.626;11.410;2023-03-14T14:27:16;11.83;;;2.17;;
5137;SDS011;53959;53.626;11.410;2023-03-14T14:29:56;14.77;;;2.60;;
5137;SDS011;53959;53.626;11.410;2023-03-14T14:32:27;14.70;;;2.77;;
5137;SDS011;53959;53.626;11.410;2023-03-14T14:35:00;12.53;;;4.30;;
5137;SDS011;53959;53.626;11.410;2023-03-14T14:37:28;16.60;;;3.67;;
5137;SDS011;53959;53.626;11.410;2023-03-14T14:39:56;9.47;;;2.83;;
5137;SDS011;53959;53.626;11.410;2023-03-14T14:42:25;13.93;;;3.37;;
5137;SDS011;53959;53.626;11.410;2023-03-14T14:44:54;10.37;;;2.17;;
5137;SDS011;53959;53.626;11.410;2023-03-14T14:47:22;5.10;;;1.63;;
5137;SDS011;53959;53.626;11.410;2023-03-14T14:49:50;8.10;;;2.20;;
5137;SDS011;53959;53.626;11.410;2023-03-14T14:52:18;5.43;;;1.57;;
5137;SDS011;53959;53.626;11.410;2023-03-14T14:54:52;6.13;;;2.00;;
5137;SDS011;53959;53.626;11.410;2023-03-14T14:57:23;5.67;;;1.93;;
5137;SDS011;53959;53.626;11.410;2023-03-14T14:59:54;6.07;;;2.07;;
5137;SDS011;53959;53.626;11.410;2023-03-14T15:02:35;8.87;;;2.83;;
5137;SDS011;53959;53.626;11.410;2023-03-14T15:05:05;14.87;;;2.43;;
5137;SDS011;53959;53.626;11.410;2023-03-14T15:07:36;7.60;;;1.60;;
5137;SDS011;53959;53.626;11.410;2023-03-14T15:10:02;8.77;;;1.40;;
5137;SDS011;53959;53.626;11.410;2023-03-14T15:12:28;10.07;;;1.90;;
5137;SDS011;53959;53.626;11.410;2023-03-14T15:14:53;14.90;;;2.00;;
5137;SDS011;53959;53.626;11.410;2023-03-14T15:17:22;7.03;;;1.80;;
5137;SDS011;53959;53.626;11.410;2023-03-14T15:19:48;12.33;;;2.40;;
5137;SDS011;53959;53.626;11.410;2023-03-14T15:22:13;8.00;;;1.80;;
5137;SDS011;53959;53.626;11.410;2023-03-14T15:24:39;13.73;;;2.43;;
5137;SDS011;53959;53.626;11.410;2023-03-14T15:27:08;11.77;;;2.10;;
5137;SDS011;53959;53.626;11.410;2023-03-14T15:29:41;17.10;;;3.10;;
5137;SDS011;53959;53.626;11.410;2023-03-14T15:32:09;7.30;;;1.60;;
5137;SDS011;53959;53.626;11.410;2023-03-14T15:34:36;10.00;;;2.37;;
5137;SDS011;53959;53.626;11.410;2023-03-14T15:37:01;14.10;;;2.90;;
5137;SDS011;53959;53.626;11.410;2023-03-14T15:39:32;13.00;;;1.90;;
5137;SDS011;53959;53.626;11.410;2023-03-14T15:41:58;6.53;;;2.03;;
5137;SDS011;53959;53.626;11.410;2023-03-14T15:44:24;12.33;;;2.37;;
5137;SDS011;53959;53.626;11.410;2023-03-14T15:46:49;5.63;;;1.63;;
5137;SDS011;53959;53.626;11.410;2023-03-14T15:49:14;14.13;;;1.80;;
5137;SDS011;53959;53.626;11.410;2023-03-14T15:51:40;10.20;;;1.27;;
5137;SDS011;53959;53.626;11.410;2023-03-14T15:54:05;11.17;;;2.27;;
5137;SDS011;53959;53.626;11.410;2023-03-14T15:56:30;7.73;;;1.57;;
5137;SDS011;53959;53.626;11.410;2023-03-14T15:58:56;11.50;;;1.47;;
5137;SDS011;53959;53.626;11.410;2023-03-14T16:01:21;9.57;;;2.10;;
5137;SDS011;53959;53.626;11.410;2023-03-14T16:03:47;7.33;;;1.50;;
5137;SDS011;53959;53.626;11.410;2023-03-14T16:06:14;17.23;;;2.07;;
5137;SDS011;53959;53.626;11.410;2023-03-14T16:08:40;16.30;;;1.83;;
5137;SDS011;53959;53.626;11.410;2023-03-14T16:11:08;5.27;;;1.47;;
5137;SDS011;53959;53.626;11.410;2023-03-14T16:13:35;7.60;;;1.60;;